Time;durP1;ratioP1;P1;durP2;ratioP2;P2;SDS_P1;SDS_P2;PMS_P1;PMS_P2;Temp;Humidity;BMP_temperature;BMP_pressure;BME280_temperature;BME280_humidity;BME280_pressure;Samples;Min_cycle;Max_cycle;Signal;HPM_P1;HPM_P2
2022/05/11 00:02:11;;;;;;;380.87;132.97;;;;;;;;;;5096153;27;20448;-71
2022/05/11 00:04:39;;;;;;;381.53;139.33;;;;;;;;;;5096078;27;20459;-72
2022/05/11 00:07:06;;;;;;;377.50;129.20;;;;;;;;;;5095874;27;20487;-72
2022/05/11 00:09:33;;;;;;;389.00;140.77;;;;;;;;;;5103821;27;20489;-72
2022/05/11 00:12:00;;;;;;;387.67;149.97;;;;;;;;;;5113950;27;20819;-72
2022/05/11 00:14:27;;;;;;;384.33;134.87;;;;;;;;;;5116655;27;20489;-71
2022/05/11 00:16:56;;;;;;;379.40;133.67;;;;;;;;;;5115688;27;20453;-72
2022/05/11 00:19:23;;;;;;;382.93;137.20;;;;;;;;;;5116353;27;20447;-72
2022/05/11 00:21:51;;;;;;;376.77;130.07;;;;;;;;;;5115672;27;20457;-72
2022/05/11 00:24:18;;;;;;;381.27;136.90;;;;;;;;;;5107498;27;20456;-72
2022/05/11 00:26:45;;;;;;;385.07;135.33;;;;;;;;;;5095564;27;20510;-72
2022/05/11 00:29:13;;;;;;;382.53;148.77;;;;;;;;;;5094500;27;20534;-72
2022/05/11 00:31:40;;;;;;;373.90;128.13;;;;;;;;;;5096083;27;20455;-72
2022/05/11 00:34:07;;;;;;;376.20;126.17;;;;;;;;;;5094972;27;20539;-71
2022/05/11 00:36:34;;;;;;;382.23;135.33;;;;;;;;;;5095967;27;20463;-72
2022/05/11 00:39:02;;;;;;;381.03;129.90;;;;;;;;;;5100573;27;20458;-72
2022/05/11 00:41:29;;;;;;;369.00;122.30;;;;;;;;;;5114830;27;20782;-72
2022/05/11 00:43:57;;;;;;;376.50;130.70;;;;;;;;;;5115237;27;20457;-72
2022/05/11 00:46:28;;;;;;;378.33;125.03;;;;;;;;;;5114912;27;20526;-72
2022/05/11 00:51:45;;;;;;;376.47;138.50;;;;;;;;;;5114524;27;20477;-72
2022/05/11 00:54:13;;;;;;;372.40;119.90;;;;;;;;;;5110912;27;20544;-71
2022/05/11 00:56:44;;;;;;;373.87;133.57;;;;;;;;;;5093830;27;20468;-72
2022/05/11 00:59:13;;;;;;;382.60;142.30;;;;;;;;;;5096585;27;20477;-72
2022/05/11 01:01:40;;;;;;;377.43;130.73;;;;;;;;;;5097479;27;20739;-72
2022/05/11 01:04:09;;;;;;;381.20;136.03;;;;;;;;;;5099190;27;20481;-72
2022/05/11 01:06:36;;;;;;;389.20;138.30;;;;;;;;;;5097900;27;20513;-72
2022/05/11 01:09:05;;;;;;;385.00;148.43;;;;;;;;;;5098112;27;20906;-72
2022/05/11 01:11:34;;;;;;;378.93;126.10;;;;;;;;;;5098167;27;20471;-72
2022/05/11 01:14:01;;;;;;;390.13;138.77;;;;;;;;;;5098180;27;20806;-70
2022/05/11 01:16:28;;;;;;;376.57;127.97;;;;;;;;;;5098444;27;20455;-72
2022/05/11 01:18:55;;;;;;;382.83;126.40;;;;;;;;;;5098174;27;20458;-72
2022/05/11 01:21:24;;;;;;;388.17;140.47;;;;;;;;;;5099172;27;20452;-71
2022/05/11 01:23:55;;;;;;;382.30;131.90;;;;;;;;;;5098914;27;20462;-72
2022/05/11 01:26:22;;;;;;;384.57;135.80;;;;;;;;;;5098343;27;20452;-71
2022/05/11 01:28:54;;;;;;;380.47;133.53;;;;;;;;;;5098356;27;20530;-72
2022/05/11 01:31:24;;;;;;;384.60;132.57;;;;;;;;;;5098915;27;20460;-72
2022/05/11 01:33:52;;;;;;;383.27;132.90;;;;;;;;;;5098770;27;20488;-72
2022/05/11 01:36:25;;;;;;;380.93;141.70;;;;;;;;;;5097586;27;20455;-72
2022/05/11 01:39:01;;;;;;;388.10;142.33;;;;;;;;;;5098475;27;20467;-71
2022/05/11 01:41:32;;;;;;;377.37;132.00;;;;;;;;;;5098335;28;20471;-71
2022/05/11 01:43:59;;;;;;;377.77;133.67;;;;;;;;;;5098012;27;20460;-72
2022/05/11 01:46:27;;;;;;;373.17;124.93;;;;;;;;;;5098031;27;20443;-72
2022/05/11 01:49:02;;;;;;;375.57;127.67;;;;;;;;;;5096457;27;20594;-72
2022/05/11 01:51:30;;;;;;;384.73;135.77;;;;;;;;;;5096640;27;20727;-72
2022/05/11 01:53:57;;;;;;;392.10;167.13;;;;;;;;;;5096191;27;20497;-72
2022/05/11 01:56:25;;;;;;;378.53;126.47;;;;;;;;;;5097192;27;20900;-71
2022/05/11 01:58:55;;;;;;;378.10;130.97;;;;;;;;;;5096473;27;20452;-71
2022/05/11 02:01:27;;;;;;;379.90;138.57;;;;;;;;;;5096843;27;20487;-72
2022/05/11 02:03:54;;;;;;;368.37;124.43;;;;;;;;;;5096841;27;20451;-72
2022/05/11 02:09:09;;;;;;;380.57;139.70;;;;;;;;;;5107635;27;20475;-72
2022/05/11 02:11:36;;;;;;;385.00;139.07;;;;;;;;;;5097138;27;20456;-73
2022/05/11 02:14:04;;;;;;;378.53;144.23;;;;;;;;;;5097199;27;20553;-71
2022/05/11 02:16:31;;;;;;;379.63;136.40;;;;;;;;;;5096389;27;20455;-72
2022/05/11 02:18:58;;;;;;;375.63;142.07;;;;;;;;;;5096886;27;20467;-72
2022/05/11 02:21:26;;;;;;;382.37;140.73;;;;;;;;;;5097143;27;20516;-72
2022/05/11 02:23:58;;;;;;;389.07;147.40;;;;;;;;;;5096648;27;20456;-71
2022/05/11 02:26:25;;;;;;;384.27;137.27;;;;;;;;;;5096871;27;20757;-71
2022/05/11 02:28:54;;;;;;;400.23;178.40;;;;;;;;;;5104861;27;20450;-72
2022/05/11 02:31:21;;;;;;;385.57;147.10;;;;;;;;;;5118231;27;20919;-73
2022/05/11 02:33:48;;;;;;;383.30;143.43;;;;;;;;;;5117426;27;20518;-72
2022/05/11 02:36:15;;;;;;;382.13;132.30;;;;;;;;;;5117825;27;20459;-72
2022/05/11 02:38:43;;;;;;;386.70;145.97;;;;;;;;;;5115458;27;20456;-71
2022/05/11 02:41:10;;;;;;;377.37;131.73;;;;;;;;;;5117877;27;20908;-72
2022/05/11 02:43:38;;;;;;;389.13;147.50;;;;;;;;;;5117598;27;20486;-73
2022/05/11 02:46:08;;;;;;;393.97;172.17;;;;;;;;;;5116577;27;20494;-72
2022/05/11 02:48:36;;;;;;;407.60;193.33;;;;;;;;;;5099588;27;20518;-72
2022/05/11 02:51:03;;;;;;;390.27;148.70;;;;;;;;;;5096362;27;20466;-72
2022/05/11 02:53:31;;;;;;;379.13;138.60;;;;;;;;;;5097050;27;20483;-72
2022/05/11 02:55:59;;;;;;;386.37;141.53;;;;;;;;;;5096915;27;20860;-73
2022/05/11 02:58:27;;;;;;;388.57;146.23;;;;;;;;;;5098720;27;20464;-72
2022/05/11 03:00:55;;;;;;;380.97;142.70;;;;;;;;;;5104756;27;20791;-72
2022/05/11 03:03:22;;;;;;;390.30;146.20;;;;;;;;;;5116787;27;20458;-71
2022/05/11 03:05:54;;;;;;;392.83;157.57;;;;;;;;;;5104580;27;20452;-72
2022/05/11 03:08:22;;;;;;;382.50;139.83;;;;;;;;;;5096078;27;20542;-73
2022/05/11 03:10:49;;;;;;;409.77;186.40;;;;;;;;;;5103788;27;20466;-73
2022/05/11 03:13:17;;;;;;;385.20;139.87;;;;;;;;;;5117208;27;20478;-73
2022/05/11 03:15:44;;;;;;;382.00;137.33;;;;;;;;;;5105152;27;20458;-71
2022/05/11 03:18:12;;;;;;;383.87;143.30;;;;;;;;;;5096601;27;20447;-72
2022/05/11 03:20:39;;;;;;;379.10;135.20;;;;;;;;;;5095615;27;20462;-72
2022/05/11 03:23:07;;;;;;;384.40;145.87;;;;;;;;;;5098419;27;20459;-71
2022/05/11 03:28:24;;;;;;;385.33;143.47;;;;;;;;;;5114816;27;20489;-72
2022/05/11 03:30:52;;;;;;;383.43;138.60;;;;;;;;;;5098421;27;20462;-72
2022/05/11 03:36:04;;;;;;;383.90;151.23;;;;;;;;;;5095285;27;20477;-72
2022/05/11 03:38:32;;;;;;;383.67;142.13;;;;;;;;;;5095724;27;20450;-72
2022/05/11 03:40:59;;;;;;;379.73;138.97;;;;;;;;;;5096285;27;20463;-72
2022/05/11 03:43:26;;;;;;;387.90;146.70;;;;;;;;;;5116531;27;20467;-72
2022/05/11 03:45:54;;;;;;;396.00;173.07;;;;;;;;;;5116501;27;20447;-71
2022/05/11 03:48:21;;;;;;;390.77;144.53;;;;;;;;;;5116310;27;20858;-72
2022/05/11 03:50:48;;;;;;;388.40;155.33;;;;;;;;;;5114912;27;20454;-72
2022/05/11 03:53:15;;;;;;;385.97;145.67;;;;;;;;;;5098563;27;21108;-72
2022/05/11 03:55:43;;;;;;;387.33;148.67;;;;;;;;;;5095697;27;20459;-72
2022/05/11 03:58:13;;;;;;;385.50;150.10;;;;;;;;;;5097040;27;20558;-71
2022/05/11 04:00:42;;;;;;;394.73;163.67;;;;;;;;;;5096366;27;20463;-72
2022/05/11 04:03:10;;;;;;;394.57;152.10;;;;;;;;;;5096400;27;20447;-72
2022/05/11 04:05:38;;;;;;;394.60;154.17;;;;;;;;;;5097717;27;20460;-72
2022/05/11 04:08:06;;;;;;;380.60;137.73;;;;;;;;;;5110792;27;20459;-72
2022/05/11 04:10:33;;;;;;;398.33;173.23;;;;;;;;;;5115836;27;20443;-72
2022/05/11 04:13:02;;;;;;;391.63;166.70;;;;;;;;;;5115934;27;20833;-72
2022/05/11 04:15:29;;;;;;;395.83;160.03;;;;;;;;;;5116530;27;20527;-72
2022/05/11 04:17:56;;;;;;;392.10;157.23;;;;;;;;;;5114701;27;20450;-71
2022/05/11 04:20:30;;;;;;;398.13;163.73;;;;;;;;;;5115530;27;20458;-72
2022/05/11 04:22:57;;;;;;;398.27;179.73;;;;;;;;;;5116204;27;20446;-72
2022/05/11 04:25:24;;;;;;;387.90;150.47;;;;;;;;;;5112626;27;20462;-73
2022/05/11 04:27:51;;;;;;;398.87;165.30;;;;;;;;;;5115251;27;20461;-72
2022/05/11 04:30:20;;;;;;;400.90;168.73;;;;;;;;;;5115366;27;20851;-72
2022/05/11 04:32:47;;;;;;;396.50;165.67;;;;;;;;;;5115785;27;20587;-72
2022/05/11 04:35:15;;;;;;;394.97;171.83;;;;;;;;;;5117881;27;20511;-72
2022/05/11 04:37:47;;;;;;;408.03;204.30;;;;;;;;;;5119407;27;20833;-72
2022/05/11 04:40:15;;;;;;;397.03;176.23;;;;;;;;;;5116157;27;20465;-72
2022/05/11 04:42:43;;;;;;;393.50;162.30;;;;;;;;;;5118254;27;20725;-72
2022/05/11 04:45:14;;;;;;;396.93;164.83;;;;;;;;;;5118624;27;20450;-73
2022/05/11 04:47:42;;;;;;;391.73;154.80;;;;;;;;;;5118044;27;20855;-73
2022/05/11 04:50:09;;;;;;;397.70;165.50;;;;;;;;;;5106242;27;20898;-74
2022/05/11 04:52:37;;;;;;;390.67;153.37;;;;;;;;;;5099458;27;20447;-74
2022/05/11 04:55:05;;;;;;;391.40;158.83;;;;;;;;;;5116100;27;20582;-72
2022/05/11 04:57:33;;;;;;;390.67;159.33;;;;;;;;;;5118336;27;20445;-72
2022/05/11 05:00:00;;;;;;;396.63;170.40;;;;;;;;;;5118763;27;20459;-72
2022/05/11 05:02:28;;;;;;;391.90;157.73;;;;;;;;;;5130998;27;20460;-72
2022/05/11 05:05:00;;;;;;;390.93;153.13;;;;;;;;;;5116159;27;20473;-72
2022/05/11 05:07:28;;;;;;;394.97;167.57;;;;;;;;;;5105952;27;20494;-73
2022/05/11 05:09:55;;;;;;;393.93;162.70;;;;;;;;;;5096925;27;20467;-72
2022/05/11 05:12:24;;;;;;;398.00;168.10;;;;;;;;;;5096134;27;20456;-71
2022/05/11 05:14:51;;;;;;;391.97;156.83;;;;;;;;;;5102146;27;20494;-73
2022/05/11 05:17:18;;;;;;;411.73;210.43;;;;;;;;;;5116605;27;20454;-72
2022/05/11 05:19:47;;;;;;;399.47;171.97;;;;;;;;;;5104473;27;20552;-72
2022/05/11 05:22:15;;;;;;;389.27;153.67;;;;;;;;;;5094744;27;20454;-72
2022/05/11 05:24:42;;;;;;;392.87;152.03;;;;;;;;;;5109828;27;20913;-72
2022/05/11 05:27:11;;;;;;;383.37;141.70;;;;;;;;;;5112979;27;20454;-72
2022/05/11 05:32:23;;;;;;;396.40;157.47;;;;;;;;;;5094315;27;20498;-72
2022/05/11 05:34:50;;;;;;;392.77;152.07;;;;;;;;;;5094748;27;20502;-73
2022/05/11 05:37:18;;;;;;;388.43;138.83;;;;;;;;;;5102306;27;20872;-71
2022/05/11 05:39:46;;;;;;;393.77;149.80;;;;;;;;;;5096149;27;20467;-73
2022/05/11 05:42:18;;;;;;;395.80;152.30;;;;;;;;;;5101969;27;20450;-72
2022/05/11 05:44:46;;;;;;;392.37;155.10;;;;;;;;;;5114772;27;21018;-71
2022/05/11 05:47:15;;;;;;;413.73;208.10;;;;;;;;;;5114832;27;20450;-73
2022/05/11 05:49:43;;;;;;;394.10;157.60;;;;;;;;;;5114460;27;21115;-73
2022/05/11 05:52:16;;;;;;;397.37;157.27;;;;;;;;;;5111898;27;20458;-72
2022/05/11 05:54:45;;;;;;;413.37;207.73;;;;;;;;;;5114712;27;20486;-71
2022/05/11 05:57:13;;;;;;;388.67;146.80;;;;;;;;;;5114493;27;20519;-72
2022/05/11 05:59:40;;;;;;;396.53;167.07;;;;;;;;;;5114608;27;20454;-72
2022/05/11 06:02:12;;;;;;;385.37;144.37;;;;;;;;;;5115132;27;20476;-72
2022/05/11 06:04:40;;;;;;;386.90;145.63;;;;;;;;;;5114561;27;20464;-72
2022/05/11 06:07:07;;;;;;;390.30;151.60;;;;;;;;;;5113986;27;20483;-72
2022/05/11 06:09:35;;;;;;;408.63;180.13;;;;;;;;;;5113986;27;20446;-73
2022/05/11 06:12:02;;;;;;;402.13;173.50;;;;;;;;;;5114390;27;20843;-73
2022/05/11 06:14:29;;;;;;;399.03;162.70;;;;;;;;;;5112872;27;20983;-72
2022/05/11 06:16:59;;;;;;;391.00;157.70;;;;;;;;;;5114086;27;20450;-72
2022/05/11 06:19:31;;;;;;;389.37;163.00;;;;;;;;;;5103669;27;20479;-73
2022/05/11 06:22:01;;;;;;;412.60;210.13;;;;;;;;;;5097093;27;20463;-73
2022/05/11 06:24:30;;;;;;;400.53;181.03;;;;;;;;;;5114910;27;20478;-72
2022/05/11 06:26:58;;;;;;;398.87;178.67;;;;;;;;;;5114944;27;20445;-72
2022/05/11 06:29:26;;;;;;;394.60;162.87;;;;;;;;;;5114523;27;20461;-73
2022/05/11 06:31:53;;;;;;;389.20;158.27;;;;;;;;;;5113448;27;20454;-72
2022/05/11 06:34:25;;;;;;;394.97;169.40;;;;;;;;;;5095896;27;20522;-73
2022/05/11 06:36:52;;;;;;;399.53;178.77;;;;;;;;;;5095533;27;20470;-73
2022/05/11 06:39:21;;;;;;;401.57;175.73;;;;;;;;;;5099026;27;20568;-74
2022/05/11 06:41:58;;;;;;;385.07;150.57;;;;;;;;;;5113796;27;20455;-73
2022/05/11 06:44:27;;;;;;;409.50;184.60;;;;;;;;;;5126159;27;20449;-73
2022/05/11 06:46:54;;;;;;;406.90;183.43;;;;;;;;;;5115782;27;20492;-73
2022/05/11 06:49:27;;;;;;;426.40;235.73;;;;;;;;;;5121481;27;20488;-74
2022/05/11 06:51:58;;;;;;;420.57;210.13;;;;;;;;;;5102743;28;20941;-74
2022/05/11 07:00:05;;;;;;;402.40;164.80;;;;;;;;;;5127512;27;20445;-74
2022/05/11 07:02:37;;;;;;;404.77;185.33;;;;;;;;;;5115450;27;20557;-74
2022/05/11 07:05:05;;;;;;;402.93;173.60;;;;;;;;;;5114691;27;20435;-71
2022/05/11 07:07:34;;;;;;;406.47;179.40;;;;;;;;;;5114485;27;20467;-73
2022/05/11 07:10:03;;;;;;;428.33;249.00;;;;;;;;;;5115031;27;20447;-74
2022/05/11 07:12:38;;;;;;;399.10;170.43;;;;;;;;;;5114019;27;20687;-74
2022/05/11 07:15:14;;;;;;;405.47;190.40;;;;;;;;;;5115290;27;20454;-75
2022/05/11 07:17:42;;;;;;;400.70;172.97;;;;;;;;;;5114779;27;20462;-73
2022/05/11 07:20:11;;;;;;;407.43;197.97;;;;;;;;;;5115444;27;20829;-73
2022/05/11 07:22:41;;;;;;;415.80;218.03;;;;;;;;;;5114054;27;20472;-73
2022/05/11 07:25:26;;;;;;;404.13;196.27;;;;;;;;;;5113180;27;20442;-74
2022/05/11 07:27:57;;;;;;;409.07;202.70;;;;;;;;;;5108054;27;20475;-73
2022/05/11 07:30:27;;;;;;;401.87;195.57;;;;;;;;;;5103845;27;20454;-73
2022/05/11 07:32:54;;;;;;;409.07;192.43;;;;;;;;;;5094533;27;20467;-73
2022/05/11 07:35:24;;;;;;;427.67;253.03;;;;;;;;;;5094353;27;20458;-73
2022/05/11 07:37:52;;;;;;;408.73;200.17;;;;;;;;;;5097701;27;20461;-73
2022/05/11 07:40:23;;;;;;;411.30;217.73;;;;;;;;;;5109362;27;20872;-72
2022/05/11 07:42:57;;;;;;;410.97;219.43;;;;;;;;;;5114631;27;20466;-73
2022/05/11 07:45:28;;;;;;;410.00;209.43;;;;;;;;;;5100578;27;20822;-73
2022/05/11 07:47:55;;;;;;;414.20;220.67;;;;;;;;;;5112360;27;20469;-72
2022/05/11 07:50:26;;;;;;;411.77;204.90;;;;;;;;;;5114291;27;20486;-73
2022/05/11 07:52:58;;;;;;;413.50;220.07;;;;;;;;;;5104983;27;20463;-72
2022/05/11 07:55:29;;;;;;;445.07;306.03;;;;;;;;;;5095444;27;20529;-72
2022/05/11 08:00:52;;;;;;;419.23;255.27;;;;;;;;;;5042638;28;20434;-72
2022/05/11 08:03:27;;;;;;;438.07;310.20;;;;;;;;;;5053340;28;20464;-71
2022/05/11 08:06:05;;;;;;;413.43;233.10;;;;;;;;;;5124560;27;20464;-72
2022/05/11 08:08:32;;;;;;;407.67;224.97;;;;;;;;;;5136387;27;20464;-71
2022/05/11 08:11:06;;;;;;;440.97;304.30;;;;;;;;;;5127062;27;20601;-72
2022/05/11 08:13:36;;;;;;;421.50;249.10;;;;;;;;;;5120950;27;20547;-70
2022/05/11 08:16:12;;;;;;;407.40;225.20;;;;;;;;;;5119554;27;20738;-71
2022/05/11 08:18:39;;;;;;;424.83;263.77;;;;;;;;;;5114451;27;20438;-71
2022/05/11 08:21:06;;;;;;;428.83;269.30;;;;;;;;;;5115786;27;20481;-72
2022/05/11 08:23:35;;;;;;;445.73;323.17;;;;;;;;;;5112376;27;20458;-71
2022/05/11 08:26:04;;;;;;;431.47;292.10;;;;;;;;;;5118172;27;20462;-71
2022/05/11 08:28:38;;;;;;;411.83;228.40;;;;;;;;;;5118906;27;20458;-71
2022/05/11 08:34:03;;;;;;;419.97;265.40;;;;;;;;;;5117878;27;20526;-72
2022/05/11 08:36:32;;;;;;;428.97;279.97;;;;;;;;;;5118162;27;20454;-71
2022/05/11 08:39:01;;;;;;;424.43;272.63;;;;;;;;;;5116544;27;20482;-72
2022/05/11 08:41:34;;;;;;;416.73;254.03;;;;;;;;;;5107262;27;20467;-71
2022/05/11 08:44:02;;;;;;;427.80;275.93;;;;;;;;;;5117055;27;20449;-72
2022/05/11 08:46:38;;;;;;;438.77;322.33;;;;;;;;;;5111698;27;20512;-71
2022/05/11 08:49:23;;;;;;;420.17;270.80;;;;;;;;;;5109007;27;20454;-72
2022/05/11 08:52:08;;;;;;;429.37;299.57;;;;;;;;;;5115250;27;20455;-71
2022/05/11 08:54:42;;;;;;;425.30;282.33;;;;;;;;;;5102979;27;20478;-72
2022/05/11 08:57:11;;;;;;;414.07;253.30;;;;;;;;;;5096507;27;20554;-71
2022/05/11 08:59:39;;;;;;;419.13;271.27;;;;;;;;;;5108194;27;21136;-71
2022/05/11 09:02:14;;;;;;;420.20;276.17;;;;;;;;;;5116683;27;20470;-72
2022/05/11 09:04:46;;;;;;;417.83;277.77;;;;;;;;;;5102344;27;20463;-70
2022/05/11 09:07:13;;;;;;;411.37;248.93;;;;;;;;;;5096668;27;20494;-70
2022/05/11 09:09:40;;;;;;;410.07;253.03;;;;;;;;;;5111268;27;20458;-70
2022/05/11 09:12:15;;;;;;;421.40;274.33;;;;;;;;;;5100138;27;20466;-71
2022/05/11 09:14:47;;;;;;;440.97;332.53;;;;;;;;;;5104303;27;20506;-70
2022/05/11 09:17:32;;;;;;;426.60;286.53;;;;;;;;;;5101900;27;20470;-70
2022/05/11 09:20:01;;;;;;;419.03;274.07;;;;;;;;;;5097120;27;20454;-70
2022/05/11 09:22:32;;;;;;;420.43;276.33;;;;;;;;;;5101958;27;20462;-71
2022/05/11 09:25:01;;;;;;;423.67;287.80;;;;;;;;;;5104441;27;20474;-72
2022/05/11 09:27:29;;;;;;;431.47;306.37;;;;;;;;;;5105113;27;20472;-71
2022/05/11 09:29:59;;;;;;;429.03;295.97;;;;;;;;;;5110825;27;20505;-71
2022/05/11 09:32:33;;;;;;;437.97;306.20;;;;;;;;;;5109722;27;20486;-72
2022/05/11 09:35:29;;;;;;;444.73;333.77;;;;;;;;;;5112672;27;20540;-70
2022/05/11 09:37:59;;;;;;;437.53;334.43;;;;;;;;;;5114212;27;20839;-70
2022/05/11 09:40:27;;;;;;;449.90;354.10;;;;;;;;;;5105769;27;20460;-72
2022/05/11 09:42:56;;;;;;;436.80;322.00;;;;;;;;;;5094500;27;20460;-73
2022/05/11 09:45:41;;;;;;;443.27;338.97;;;;;;;;;;5106753;27;20478;-71
2022/05/11 09:48:17;;;;;;;447.60;378.73;;;;;;;;;;5117393;27;20739;-71
2022/05/11 09:50:45;;;;;;;446.20;373.13;;;;;;;;;;5120039;27;20462;-73
2022/05/11 09:53:22;;;;;;;434.47;318.87;;;;;;;;;;5113140;27;20474;-73
2022/05/11 09:55:54;;;;;;;432.93;323.40;;;;;;;;;;5106419;27;20459;-73
2022/05/11 09:58:29;;;;;;;435.83;320.83;;;;;;;;;;5096426;27;20955;-73
2022/05/11 10:01:14;;;;;;;441.43;357.73;;;;;;;;;;5110541;27;20443;-72
2022/05/11 10:03:49;;;;;;;452.70;392.70;;;;;;;;;;5098710;27;20474;-72
2022/05/11 10:06:21;;;;;;;450.80;377.70;;;;;;;;;;5108209;27;20537;-72
2022/05/11 10:08:52;;;;;;;452.53;401.07;;;;;;;;;;5103080;27;20455;-73
2022/05/11 10:11:22;;;;;;;452.10;392.60;;;;;;;;;;5099625;27;20466;-73
2022/05/11 10:13:59;;;;;;;441.63;346.23;;;;;;;;;;5107726;27;20483;-73
2022/05/11 10:22:12;;;;;;;445.37;378.40;;;;;;;;;;5106139;27;20537;-72
2022/05/11 10:25:02;;;;;;;457.77;407.30;;;;;;;;;;5095478;27;20748;-74
2022/05/11 10:27:38;;;;;;;451.63;383.33;;;;;;;;;;5106462;27;20475;-73
2022/05/11 10:30:17;;;;;;;439.00;349.83;;;;;;;;;;5107302;27;20468;-74
2022/05/11 10:33:01;;;;;;;464.63;413.70;;;;;;;;;;5103485;27;20495;-74
2022/05/11 10:35:36;;;;;;;447.97;386.80;;;;;;;;;;5103484;27;20455;-75
2022/05/11 10:38:18;;;;;;;454.17;396.87;;;;;;;;;;5115194;27;20799;-74
2022/05/11 10:40:51;;;;;;;439.37;349.20;;;;;;;;;;5103336;27;20466;-73
2022/05/11 10:43:46;;;;;;;474.53;423.87;;;;;;;;;;5119128;27;20613;-73
2022/05/11 10:46:17;;;;;;;449.00;395.63;;;;;;;;;;5122918;27;20458;-73
2022/05/11 10:49:12;;;;;;;469.33;418.53;;;;;;;;;;5111817;27;20543;-75
2022/05/11 10:51:48;;;;;;;505.20;453.70;;;;;;;;;;5095514;27;20592;-72
2022/05/11 10:54:24;;;;;;;438.57;358.83;;;;;;;;;;5108928;27;20478;-72
2022/05/11 10:57:02;;;;;;;443.63;379.50;;;;;;;;;;5107625;27;20531;-73
2022/05/11 10:59:44;;;;;;;443.30;388.80;;;;;;;;;;5097674;27;21018;-73
2022/05/11 11:02:45;;;;;;;457.87;384.67;;;;;;;;;;5111909;27;20449;-74
2022/05/11 11:05:18;;;;;;;477.73;427.10;;;;;;;;;;5100186;27;20475;-73
2022/05/11 11:07:53;;;;;;;443.00;383.93;;;;;;;;;;5102990;27;20993;-73
2022/05/11 11:10:33;;;;;;;442.53;382.30;;;;;;;;;;5124063;27;20789;-74
2022/05/11 11:13:17;;;;;;;491.13;439.87;;;;;;;;;;5113794;27;20527;-73
2022/05/11 11:15:45;;;;;;;437.57;355.93;;;;;;;;;;5105850;27;20478;-73
2022/05/11 11:18:20;;;;;;;450.47;400.93;;;;;;;;;;5105254;27;20899;-73
2022/05/11 11:20:50;;;;;;;500.60;449.63;;;;;;;;;;5113328;27;20493;-74
2022/05/11 11:23:30;;;;;;;472.37;422.30;;;;;;;;;;5097897;27;20526;-73
2022/05/11 11:25:59;;;;;;;461.00;411.13;;;;;;;;;;5098942;27;20459;-73
2022/05/11 11:28:27;;;;;;;467.90;417.87;;;;;;;;;;5097096;27;20463;-72
2022/05/11 11:31:25;;;;;;;449.73;399.23;;;;;;;;;;5105393;27;20456;-73
2022/05/11 11:34:11;;;;;;;443.10;386.67;;;;;;;;;;5023273;28;20524;-73
2022/05/11 11:36:40;;;;;;;460.00;410.20;;;;;;;;;;5088066;27;20443;-72
2022/05/11 11:39:10;;;;;;;477.80;427.77;;;;;;;;;;5102414;27;20445;-73
2022/05/11 11:41:58;;;;;;;464.83;414.77;;;;;;;;;;5112885;27;20459;-72
2022/05/11 11:44:37;;;;;;;512.33;461.70;;;;;;;;;;5109443;27;20461;-73
2022/05/11 11:47:26;;;;;;;483.47;433.03;;;;;;;;;;5118015;27;20465;-74
2022/05/11 11:50:01;;;;;;;473.00;423.13;;;;;;;;;;5102032;27;20576;-73
2022/05/11 11:52:48;;;;;;;543.73;491.73;;;;;;;;;;5095258;27;20474;-72
2022/05/11 11:55:30;;;;;;;536.97;485.67;;;;;;;;;;5090235;28;20922;-73
2022/05/11 11:58:15;;;;;;;533.73;481.83;;;;;;;;;;5083565;28;20468;-73
2022/05/11 12:01:04;;;;;;;536.87;485.57;;;;;;;;;;5097988;27;20454;-73
2022/05/11 12:03:56;;;;;;;471.67;421.70;;;;;;;;;;5082134;27;20460;-73
2022/05/11 12:15:04;;;;;;;456.43;406.57;;;;;;;;;;5084301;27;20498;-70
2022/05/11 12:17:39;;;;;;;519.40;466.87;;;;;;;;;;5087895;27;20468;-72
2022/05/11 12:20:35;;;;;;;513.27;457.93;;;;;;;;;;5093290;27;20519;-77
2022/05/11 12:23:26;;;;;;;485.33;434.93;;;;;;;;;;5083710;28;20685;-77
2022/05/11 12:25:58;;;;;;;480.30;429.60;;;;;;;;;;5088220;28;20500;-72
2022/05/11 12:28:31;;;;;;;447.60;397.37;;;;;;;;;;5082909;28;20515;-72
2022/05/11 12:31:07;;;;;;;526.80;475.63;;;;;;;;;;5079015;28;20471;-73
2022/05/11 12:33:39;;;;;;;526.70;475.07;;;;;;;;;;5085498;27;20946;-72
2022/05/11 12:36:36;;;;;;;507.23;456.23;;;;;;;;;;5080945;28;20479;-72
2022/05/11 12:39:08;;;;;;;545.47;493.87;;;;;;;;;;5088244;28;20448;-72
2022/05/11 12:41:45;;;;;;;508.67;457.70;;;;;;;;;;5083812;27;20473;-72
2022/05/11 12:44:18;;;;;;;540.70;489.10;;;;;;;;;;5076746;28;20971;-71
2022/05/11 12:46:57;;;;;;;523.33;472.30;;;;;;;;;;5081848;27;20528;-72
2022/05/11 12:49:30;;;;;;;560.37;508.27;;;;;;;;;;5068795;28;20456;-71
2022/05/11 12:52:23;;;;;;;;;;;;;;;;;;;;;
2022/05/11 12:57:46;;;;;;;569.70;517.33;;;;;;;;;;5085983;28;20778;-71
2022/05/11 13:00:21;;;;;;;546.60;494.80;;;;;;;;;;5095513;27;20874;-72
2022/05/11 13:02:55;;;;;;;556.20;504.17;;;;;;;;;;5093923;27;20467;-72
2022/05/11 13:05:25;;;;;;;557.00;505.10;;;;;;;;;;5078869;28;20448;-71
2022/05/11 13:07:57;;;;;;;536.17;484.60;;;;;;;;;;5092649;28;21054;-72
2022/05/11 13:10:29;;;;;;;576.70;523.73;;;;;;;;;;5097055;28;20870;-72
2022/05/11 13:12:59;;;;;;;579.83;526.87;;;;;;;;;;5079593;28;20502;-72
2022/05/11 13:15:38;;;;;;;519.20;468.30;;;;;;;;;;5081750;27;21163;-71
2022/05/11 13:18:07;;;;;;;521.37;469.80;;;;;;;;;;5098064;27;20439;-70
2022/05/11 13:20:39;;;;;;;526.20;475.33;;;;;;;;;;5095856;27;20759;-71
2022/05/11 13:23:24;;;;;;;579.97;527.67;;;;;;;;;;5097355;27;20846;-73
2022/05/11 13:28:41;;;;;;;541.50;490.00;;;;;;;;;;5096030;27;20440;-72
2022/05/11 13:31:29;;;;;;;558.30;505.90;;;;;;;;;;5080510;28;20511;-71
2022/05/11 13:33:57;;;;;;;526.33;475.43;;;;;;;;;;5076453;28;20537;-71
2022/05/11 13:36:28;;;;;;;509.57;459.20;;;;;;;;;;5095886;27;20464;-71
2022/05/11 13:38:59;;;;;;;501.90;451.20;;;;;;;;;;5090905;27;20486;-71
2022/05/11 13:41:30;;;;;;;526.77;474.53;;;;;;;;;;5091800;27;20478;-72
2022/05/11 13:44:05;;;;;;;538.87;487.20;;;;;;;;;;5075085;28;20881;-72
2022/05/11 13:49:25;;;;;;;496.07;445.60;;;;;;;;;;5083336;27;20432;-72
2022/05/11 13:51:54;;;;;;;518.60;468.00;;;;;;;;;;5092223;27;20472;-72
2022/05/11 13:54:23;;;;;;;527.37;476.40;;;;;;;;;;5096426;27;20483;-72
2022/05/11 13:57:12;;;;;;;471.17;421.23;;;;;;;;;;5080160;28;20471;-72
2022/05/11 13:59:46;;;;;;;501.10;450.40;;;;;;;;;;5086987;28;20467;-73
2022/05/11 14:02:19;;;;;;;514.17;463.60;;;;;;;;;;5085181;27;20472;-73
2022/05/11 14:04:49;;;;;;;490.60;440.83;;;;;;;;;;5075369;28;20529;-72
2022/05/11 14:07:26;;;;;;;506.33;455.70;;;;;;;;;;5076235;28;20475;-72
2022/05/11 14:09:55;;;;;;;508.20;457.63;;;;;;;;;;5078171;28;20506;-71
2022/05/11 14:12:26;;;;;;;516.93;465.87;;;;;;;;;;5078173;28;20463;-72
2022/05/11 14:14:53;;;;;;;598.10;545.03;;;;;;;;;;5088441;27;20488;-72
2022/05/11 14:17:24;;;;;;;544.93;493.67;;;;;;;;;;5093775;28;20566;-74
2022/05/11 14:19:56;;;;;;;517.80;467.10;;;;;;;;;;5091853;27;20570;-73
2022/05/11 14:22:23;;;;;;;543.97;492.90;;;;;;;;;;5094195;27;20444;-73
2022/05/11 14:24:51;;;;;;;546.43;495.10;;;;;;;;;;5091773;27;20750;-73
2022/05/11 14:27:21;;;;;;;556.30;504.73;;;;;;;;;;5090651;27;20456;-73
2022/05/11 14:29:49;;;;;;;521.30;470.63;;;;;;;;;;5078175;28;20476;-73
2022/05/11 14:32:28;;;;;;;553.60;501.70;;;;;;;;;;5075625;28;20747;-73
2022/05/11 14:34:58;;;;;;;500.27;450.07;;;;;;;;;;5075690;28;20916;-73
2022/05/11 14:37:30;;;;;;;555.97;503.83;;;;;;;;;;5077002;28;20741;-74
2022/05/11 14:40:01;;;;;;;564.13;512.50;;;;;;;;;;5095043;28;20451;-72
2022/05/11 14:42:38;;;;;;;588.30;535.80;;;;;;;;;;5090115;28;20444;-72
2022/05/11 14:45:34;;;;;;;;;;;;;;;;;;;;;
2022/05/11 14:48:06;;;;;;;568.70;516.20;;;;;;;;;;5082823;28;20482;-74
2022/05/11 14:50:36;;;;;;;558.13;506.43;;;;;;;;;;5095796;28;20500;-73
2022/05/11 14:53:07;;;;;;;512.17;461.33;;;;;;;;;;5086178;27;20519;-72
2022/05/11 14:55:38;;;;;;;527.33;476.07;;;;;;;;;;5088546;27;20555;-74
2022/05/11 15:03:41;;;;;;;544.33;492.33;;;;;;;;;;5094790;27;20543;-73
2022/05/11 15:06:17;;;;;;;593.53;540.67;;;;;;;;;;5090242;28;20452;-75
2022/05/11 15:08:45;;;;;;;514.77;462.73;;;;;;;;;;5093014;27;20520;-75
2022/05/11 15:13:59;;;;;;;556.20;503.73;;;;;;;;;;5093865;27;20581;-75
2022/05/11 15:16:35;;;;;;;573.00;521.00;;;;;;;;;;5095686;27;20456;-74